PRIVATE WETTERSTATION BILLIGHEIM-ALLFELD                       ZURCK
Wetterdaten: Freitag, 29.04.2016
Datum Zeit Temp. A. Temp. A. min Temp. A. max Feuchte A. Luftdruck Regen Wind Richtung Richtung Sonnenschein ET Solar Taupunkt Windchill Windben Empfang
29.04.2016 00:00 1,7 C 1,7 C 1,9 C 85 % 1017,3 hPa 0,0 l/m 0,0 km/h (0 Bft) N 0 0 min 0,000 mm 0 W/m -0,5 C 1,7 C 0,0 km/h (0 Bft) 100 %
29.04.2016 00:10 1,6 C 1,6 C 1,7 C 85 % 1017,2 hPa 0,0 l/m 0,0 km/h (0 Bft) N 0 0 min 0,000 mm 0 W/m -0,6 C 1,6 C 0,0 km/h (0 Bft) 100 %
29.04.2016 00:20 1,4 C 1,4 C 1,6 C 85 % 1017,2 hPa 0,0 l/m 0,0 km/h (0 Bft) N 0 0 min 0,000 mm 0 W/m -0,8 C 1,4 C 0,0 km/h (0 Bft) 100 %
29.04.2016 00:30 1,4 C 1,4 C 1,4 C 86 % 1017,3 hPa 0,0 l/m 0,0 km/h (0 Bft) N 0 0 min 0,000 mm 0 W/m -0,7 C 1,4 C 0,0 km/h (0 Bft) 100 %
29.04.2016 00:40 1,3 C 1,3 C 1,4 C 86 % 1017,4 hPa 0,0 l/m 0,0 km/h (0 Bft) N 0 0 min 0,000 mm 0 W/m -0,8 C 1,3 C 0,0 km/h (0 Bft) 90 %
29.04.2016 00:50 1,1 C 1,1 C 1,3 C 87 % 1017,5 hPa 0,0 l/m 0,0 km/h (0 Bft) N 0 0 min 0,000 mm 0 W/m -0,8 C 1,1 C 0,0 km/h (0 Bft) 100 %
29.04.2016 01:00 0,9 C 0,9 C 1,1 C 87 % 1017,5 hPa 0,0 l/m 0,0 km/h (0 Bft) N 0 0 min 0,000 mm 0 W/m -1,0 C 0,9 C 0,0 km/h (0 Bft) 100 %
29.04.2016 01:10 0,8 C 0,7 C 0,9 C 88 % 1017,5 hPa 0,0 l/m 0,0 km/h (0 Bft) N 0 0 min 0,000 mm 0 W/m -1,0 C 0,8 C 0,0 km/h (0 Bft) 100 %
29.04.2016 01:20 0,6 C 0,6 C 0,7 C 88 % 1017,5 hPa 0,0 l/m 0,0 km/h (0 Bft) N 0 0 min 0,000 mm 0 W/m -1,2 C 0,6 C 0,0 km/h (0 Bft) 100 %
29.04.2016 01:30 0,4 C 0,4 C 0,6 C 89 % 1017,4 hPa 0,0 l/m 0,0 km/h (0 Bft) N 0 0 min 0,000 mm 0 W/m -1,2 C 0,4 C 0,0 km/h (0 Bft) 100 %
29.04.2016 01:40 0,3 C 0,3 C 0,4 C 89 % 1017,5 hPa 0,0 l/m 0,0 km/h (0 Bft) N 0 0 min 0,000 mm 0 W/m -1,3 C 0,3 C 0,0 km/h (0 Bft) 100 %
29.04.2016 01:50 0,2 C 0,2 C 0,3 C 90 % 1017,5 hPa 0,0 l/m 0,0 km/h (0 Bft) N 0 0 min 0,000 mm 0 W/m -1,2 C 0,2 C 0,0 km/h (0 Bft) 100 %
29.04.2016 02:00 0,1 C 0,1 C 0,2 C 90 % 1017,5 hPa 0,0 l/m 0,0 km/h (0 Bft) N 0 0 min 0,000 mm 0 W/m -1,3 C 0,1 C 0,0 km/h (0 Bft) 100 %
29.04.2016 02:10 -0,2 C -0,2 C 0,1 C 89 % 1017,5 hPa 0,0 l/m 0,0 km/h (0 Bft) N 0 0 min 0,000 mm 0 W/m -1,8 C -0,2 C 0,0 km/h (0 Bft) 100 %
29.04.2016 02:20 -0,4 C -0,4 C -0,2 C 90 % 1017,5 hPa 0,0 l/m 0,0 km/h (0 Bft) N 0 0 min 0,000 mm 0 W/m -1,8 C -0,4 C 0,0 km/h (0 Bft) 100 %
29.04.2016 02:30 -0,6 C -0,6 C -0,4 C 90 % 1017,4 hPa 0,0 l/m 0,0 km/h (0 Bft) N 0 0 min 0,000 mm 0 W/m -2,0 C -0,6 C 0,0 km/h (0 Bft) 100 %
29.04.2016 02:40 -0,7 C -0,7 C -0,6 C 90 % 1017,4 hPa 0,0 l/m 0,0 km/h (0 Bft) N 0 0 min 0,000 mm 0 W/m -2,1 C -0,7 C 0,0 km/h (0 Bft) 100 %
29.04.2016 02:50 -0,7 C -0,7 C -0,7 C 90 % 1017,4 hPa 0,0 l/m 0,0 km/h (0 Bft) N 0 0 min 0,000 mm 0 W/m -2,1 C -0,7 C 0,0 km/h (0 Bft) 100 %
29.04.2016 03:00 -0,8 C -0,8 C -0,7 C 90 % 1017,4 hPa 0,0 l/m 0,0 km/h (0 Bft) N 0 0 min 0,000 mm 0 W/m -2,2 C -0,8 C 0,0 km/h (0 Bft) 100 %
29.04.2016 03:10 -0,9 C -0,9 C -0,8 C 90 % 1017,4 hPa 0,0 l/m 0,0 km/h (0 Bft) N 0 0 min 0,000 mm 0 W/m -2,3 C -0,9 C 0,0 km/h (0 Bft) 98 %
29.04.2016 03:20 -1,0 C -1,0 C -0,9 C 91 % 1017,5 hPa 0,0 l/m 0,0 km/h (0 Bft) N 0 0 min 0,000 mm 0 W/m -2,3 C -1,0 C 0,0 km/h (0 Bft) 93 %
29.04.2016 03:30 -1,2 C -1,2 C -1,0 C 91 % 1017,5 hPa 0,0 l/m 0,0 km/h (0 Bft) N 0 0 min 0,000 mm 0 W/m -2,5 C -1,2 C 0,0 km/h (0 Bft) 100 %
29.04.2016 03:40 -1,3 C -1,3 C -1,2 C 91 % 1017,5 hPa 0,0 l/m 0,0 km/h (0 Bft) N 0 0 min 0,000 mm 0 W/m -2,6 C -1,3 C 0,0 km/h (0 Bft) 100 %
29.04.2016 03:50 -1,4 C -1,4 C -1,3 C 91 % 1017,5 hPa 0,0 l/m 0,0 km/h (0 Bft) N 0 0 min 0,000 mm 0 W/m -2,7 C -1,4 C 0,0 km/h (0 Bft) 100 %
29.04.2016 04:00 -1,5 C -1,5 C -1,4 C 91 % 1017,5 hPa 0,0 l/m 0,0 km/h (0 Bft) W-NW 292 0 min 0,000 mm 0 W/m -2,8 C -1,5 C 1,6 km/h (1 Bft) 100 %
29.04.2016 04:10 -1,6 C -1,6 C -1,5 C 91 % 1017,5 hPa 0,0 l/m 0,0 km/h (0 Bft) N 0 0 min 0,000 mm 0 W/m -2,9 C -1,6 C 0,0 km/h (0 Bft) 99 %
29.04.2016 04:20 -1,6 C -1,7 C -1,6 C 91 % 1017,5 hPa 0,0 l/m 0,0 km/h (0 Bft) N 0 0 min 0,000 mm 0 W/m -2,9 C -1,6 C 0,0 km/h (0 Bft) 100 %
29.04.2016 04:30 -1,7 C -1,7 C -1,6 C 91 % 1017,5 hPa 0,0 l/m 0,0 km/h (0 Bft) N 0 0 min 0,000 mm 0 W/m -3,0 C -1,7 C 0,0 km/h (0 Bft) 90 %
29.04.2016 04:40 -1,7 C -1,7 C -1,7 C 91 % 1017,5 hPa 0,0 l/m 0,0 km/h (0 Bft) N 0 0 min 0,000 mm 0 W/m -3,0 C -1,7 C 0,0 km/h (0 Bft) 100 %
29.04.2016 04:50 -1,8 C -1,8 C -1,7 C 91 % 1017,5 hPa 0,0 l/m 0,0 km/h (0 Bft) N 0 0 min 0,000 mm 0 W/m -3,1 C -1,8 C 0,0 km/h (0 Bft) 99 %
29.04.2016 05:00 -1,8 C -1,8 C -1,8 C 91 % 1017,5 hPa 0,0 l/m 0,0 km/h (0 Bft) N 0 0 min 0,000 mm 0 W/m -3,1 C -1,8 C 0,0 km/h (0 Bft) 100 %
29.04.2016 05:10 -1,9 C -1,9 C -1,8 C 91 % 1017,6 hPa 0,0 l/m 0,0 km/h (0 Bft) N 0 0 min 0,000 mm 0 W/m -3,2 C -1,9 C 0,0 km/h (0 Bft) 100 %
29.04.2016 05:20 -1,9 C -1,9 C -1,9 C 91 % 1017,6 hPa 0,0 l/m 0,0 km/h (0 Bft) N 0 0 min 0,000 mm 0 W/m -3,2 C -1,9 C 0,0 km/h (0 Bft) 100 %
29.04.2016 05:30 -1,9 C -1,9 C -1,9 C 91 % 1017,7 hPa 0,0 l/m 0,0 km/h (0 Bft) N 0 0 min 0,000 mm 0 W/m -3,2 C -1,9 C 0,0 km/h (0 Bft) 100 %
29.04.2016 05:40 -2,0 C -2,0 C -1,9 C 91 % 1017,7 hPa 0,0 l/m 0,0 km/h (0 Bft) W-NW 292 0 min 0,000 mm 0 W/m -3,3 C -2,0 C 1,6 km/h (1 Bft) 100 %
29.04.2016 05:50 -2,1 C -2,1 C -2,0 C 91 % 1017,7 hPa 0,0 l/m 0,0 km/h (0 Bft) N 0 0 min 0,000 mm 0 W/m -3,4 C -2,1 C 0,0 km/h (0 Bft) 100 %
29.04.2016 06:00 -2,2 C -2,2 C -2,1 C 91 % 1017,7 hPa 0,0 l/m 0,0 km/h (0 Bft) N 0 0 min 0,000 mm 0 W/m -3,5 C -2,2 C 0,0 km/h (0 Bft) 100 %
29.04.2016 06:10 -2,1 C -2,2 C -2,1 C 91 % 1017,7 hPa 0,0 l/m 0,0 km/h (0 Bft) N 0 0 min 0,000 mm 0 W/m -3,4 C -2,1 C 0,0 km/h (0 Bft) 100 %
29.04.2016 06:20 -2,1 C -2,1 C -2,1 C 91 % 1017,7 hPa 0,0 l/m 0,0 km/h (0 Bft) N 0 0 min 0,000 mm 0 W/m -3,4 C -2,1 C 0,0 km/h (0 Bft) 100 %
29.04.2016 06:30 -2,1 C -2,1 C -2,1 C 91 % 1017,9 hPa 0,0 l/m 0,0 km/h (0 Bft) N 0 0 min 0,000 mm 0 W/m -3,4 C -2,1 C 0,0 km/h (0 Bft) 100 %
29.04.2016 06:40 -2,1 C -2,1 C -2,1 C 91 % 1017,9 hPa 0,0 l/m 0,0 km/h (0 Bft) N 0 0 min 0,000 mm 0 W/m -3,4 C -2,1 C 0,0 km/h (0 Bft) 100 %
29.04.2016 06:50 -2,1 C -2,1 C -2,1 C 91 % 1018,0 hPa 0,0 l/m 0,0 km/h (0 Bft) N 0 0 min 0,000 mm 0 W/m -3,4 C -2,1 C 0,0 km/h (0 Bft) 100 %
29.04.2016 07:00 -2,1 C -2,2 C -2,1 C 91 % 1018,0 hPa 0,0 l/m 0,0 km/h (0 Bft) W-NW 292 0 min 0,000 mm 0 W/m -3,4 C -2,1 C 1,6 km/h (1 Bft) 100 %
29.04.2016 07:10 -2,1 C -2,2 C -2,1 C 91 % 1018,1 hPa 0,0 l/m 0,0 km/h (0 Bft) N 0 0 min 0,000 mm 7 W/m -3,4 C -2,1 C 0,0 km/h (0 Bft) 100 %
29.04.2016 07:20 -2,0 C -2,1 C -2,0 C 91 % 1018,2 hPa 0,0 l/m 0,0 km/h (0 Bft) N 0 0 min 0,000 mm 16 W/m -3,3 C -2,0 C 0,0 km/h (0 Bft) 100 %
29.04.2016 07:30 -1,8 C -2,0 C -1,8 C 91 % 1018,2 hPa 0,0 l/m 0,0 km/h (0 Bft) N 0 0 min 0,000 mm 14 W/m -3,1 C -1,8 C 0,0 km/h (0 Bft) 100 %
29.04.2016 07:40 -1,7 C -1,8 C -1,7 C 91 % 1018,3 hPa 0,0 l/m 0,0 km/h (0 Bft) N 0 0 min 0,000 mm 25 W/m -3,0 C -1,7 C 0,0 km/h (0 Bft) 100 %
29.04.2016 07:50 -1,4 C -1,7 C -1,4 C 91 % 1018,4 hPa 0,0 l/m 0,0 km/h (0 Bft) N 0 0 min 0,000 mm 21 W/m -2,7 C -1,4 C 0,0 km/h (0 Bft) 100 %
29.04.2016 08:00 -1,2 C -1,4 C -1,2 C 91 % 1018,4 hPa 0,0 l/m 0,0 km/h (0 Bft) N 0 0 min 0,000 mm 21 W/m -2,5 C -1,2 C 0,0 km/h (0 Bft) 89 %
29.04.2016 08:10 -0,9 C -1,2 C -0,9 C 91 % 1018,5 hPa 0,0 l/m 0,0 km/h (0 Bft) N 0 0 min 0,000 mm 62 W/m -2,2 C -0,9 C 0,0 km/h (0 Bft) 99 %
29.04.2016 08:20 -0,5 C -0,8 C -0,5 C 91 % 1018,5 hPa 0,0 l/m 0,0 km/h (0 Bft) N 0 10 min 0,000 mm 176 W/m -1,8 C -0,5 C 0,0 km/h (0 Bft) 98 %
29.04.2016 08:30 0,3 C -0,5 C 0,3 C 91 % 1018,6 hPa 0,0 l/m 0,0 km/h (0 Bft) N 0 10 min 0,000 mm 294 W/m -1,0 C 0,3 C 0,0 km/h (0 Bft) 98 %
29.04.2016 08:40 1,4 C 0,3 C 1,4 C 91 % 1018,5 hPa 0,0 l/m 0,0 km/h (0 Bft) N 0 10 min 0,000 mm 323 W/m 0,1 C 1,4 C 0,0 km/h (0 Bft) 98 %
29.04.2016 08:50 3,0 C 1,4 C 3,0 C 91 % 1018,5 hPa 0,0 l/m 0,0 km/h (0 Bft) W-NW 292 10 min 0,000 mm 350 W/m 1,7 C 3,0 C 1,6 km/h (1 Bft) 98 %
29.04.2016 09:00 4,2 C 3,0 C 4,2 C 90 % 1018,6 hPa 0,0 l/m 0,0 km/h (0 Bft) S-SW 202 10 min 0,076 mm 385 W/m 2,7 C 4,2 C 8,0 km/h (2 Bft) 97 %
29.04.2016 09:10 5,3 C 4,3 C 5,3 C 86 % 1018,5 hPa 0,0 l/m 3,2 km/h (1 Bft) S 180 10 min 0,000 mm 424 W/m 3,2 C 5,3 C 14,5 km/h (3 Bft) 97 %
29.04.2016 09:20 6,1 C 5,3 C 6,1 C 80 % 1018,6 hPa 0,0 l/m 3,2 km/h (1 Bft) S-SW 202 10 min 0,000 mm 452 W/m 2,9 C 6,1 C 9,7 km/h (2 Bft) 98 %
29.04.2016 09:30 6,8 C 6,1 C 6,8 C 77 % 1018,7 hPa 0,0 l/m 3,2 km/h (1 Bft) S-SW 202 10 min 0,000 mm 483 W/m 3,1 C 6,8 C 11,3 km/h (2 Bft) 98 %
29.04.2016 09:40 7,4 C 6,8 C 7,4 C 78 % 1018,5 hPa 0,0 l/m 1,6 km/h (1 Bft) S-SO 157 10 min 0,000 mm 515 W/m 3,8 C 7,4 C 9,7 km/h (2 Bft) 98 %
29.04.2016 09:50 7,8 C 7,4 C 7,9 C 74 % 1018,6 hPa 0,0 l/m 1,6 km/h (1 Bft) S-SW 202 10 min 0,000 mm 561 W/m 3,5 C 7,8 C 8,0 km/h (2 Bft) 98 %
29.04.2016 10:00 8,2 C 7,7 C 8,2 C 75 % 1018,6 hPa 0,0 l/m 1,6 km/h (1 Bft) S-SW 202 10 min 0,203 mm 589 W/m 4,0 C 8,2 C 9,7 km/h (2 Bft) 98 %
29.04.2016 10:10 8,8 C 8,3 C 8,8 C 70 % 1018,5 hPa 0,0 l/m 0,0 km/h (0 Bft) S-SW 202 10 min 0,000 mm 613 W/m 3,6 C 8,8 C 8,0 km/h (2 Bft) 98 %
29.04.2016 10:20 9,3 C 8,8 C 9,3 C 73 % 1018,5 hPa 0,0 l/m 1,6 km/h (1 Bft) S-SW 202 10 min 0,000 mm 621 W/m 4,7 C 9,3 C 9,7 km/h (2 Bft) 97 %
29.04.2016 10:30 10,1 C 9,3 C 10,1 C 65 % 1018,6 hPa 0,0 l/m 1,6 km/h (1 Bft) S-SW 202 10 min 0,000 mm 643 W/m 3,8 C 10,1 C 9,7 km/h (2 Bft) 98 %
29.04.2016 10:40 9,9 C 9,9 C 10,1 C 65 % 1018,6 hPa 0,0 l/m 1,6 km/h (1 Bft) S-SO 157 10 min 0,000 mm 661 W/m 3,6 C 9,9 C 6,4 km/h (2 Bft) 98 %
29.04.2016 10:50 10,7 C 9,9 C 10,7 C 69 % 1018,5 hPa 0,0 l/m 0,0 km/h (0 Bft) S-SW 202 10 min 0,000 mm 679 W/m 5,2 C 10,7 C 8,0 km/h (2 Bft) 97 %
29.04.2016 11:00 11,4 C 10,7 C 11,4 C 60 % 1018,5 hPa 0,0 l/m 1,6 km/h (1 Bft) SW 225 10 min 0,305 mm 698 W/m 3,9 C 11,4 C 9,7 km/h (2 Bft) 97 %
29.04.2016 11:25 12,1 C 11,7 C 12,2 C 56 % 1018,4 hPa 0,0 l/m 4,6 km/h (1 Bft) S-SO 158 25 min 0,000 mm 742 W/m 3,6 C 12,1 C 16,1 km/h (3 Bft) 99 %
29.04.2016 11:30 12,0 C 12,0 C 12,1 C 60 % 1018,5 hPa 0,0 l/m 3,6 km/h (1 Bft) S-SW 213 5 min 0,000 mm 765 W/m 4,5 C 12,0 C 14,5 km/h (3 Bft) 98 %
29.04.2016 11:40 11,8 C 11,8 C 12,0 C 60 % 1018,3 hPa 0,0 l/m 6,3 km/h (2 Bft) S-SW 205 10 min 0,000 mm 847 W/m 4,3 C 11,8 C 20,9 km/h (4 Bft) 99 %
29.04.2016 11:50 12,1 C 11,8 C 12,1 C 59 % 1018,2 hPa 0,0 l/m 5,8 km/h (2 Bft) S-SW 194 10 min 0,000 mm 874 W/m 4,3 C 12,1 C 16,1 km/h (3 Bft) 99 %
29.04.2016 12:00 11,6 C 11,6 C 12,1 C 56 % 1018,2 hPa 0,0 l/m 8,0 km/h (2 Bft) SW 225 10 min 0,000 mm 297 W/m 3,1 C 10,5 C 24,1 km/h (4 Bft) 99 %
29.04.2016 12:10 11,5 C 11,5 C 11,6 C 56 % 1018,1 hPa 0,0 l/m 5,2 km/h (1 Bft) SW 228 10 min 0,356 mm 285 W/m 3,0 C 11,5 C 20,9 km/h (4 Bft) 100 %
29.04.2016 12:20 11,1 C 11,1 C 11,5 C 56 % 1018,1 hPa 0,0 l/m 4,7 km/h (1 Bft) S-SO 153 10 min 0,000 mm 348 W/m 2,7 C 11,1 C 19,3 km/h (3 Bft) 100 %
29.04.2016 12:30 11,3 C 11,1 C 11,3 C 55 % 1018,1 hPa 0,0 l/m 5,8 km/h (2 Bft) S 191 10 min 0,000 mm 396 W/m 2,6 C 11,3 C 20,9 km/h (4 Bft) 100 %
29.04.2016 12:40 11,8 C 11,3 C 11,8 C 57 % 1018,1 hPa 0,0 l/m 5,4 km/h (1 Bft) S-SO 159 10 min 0,000 mm 902 W/m 3,6 C 11,8 C 16,1 km/h (3 Bft) 100 %
29.04.2016 12:50 12,4 C 11,8 C 12,4 C 55 % 1017,9 hPa 0,0 l/m 8,6 km/h (2 Bft) S-SO 161 10 min 0,000 mm 997 W/m 3,6 C 11,0 C 22,5 km/h (4 Bft) 100 %
29.04.2016 13:00 12,6 C 12,3 C 12,7 C 57 % 1017,9 hPa 0,0 l/m 6,8 km/h (2 Bft) S-SW 200 10 min 0,330 mm 446 W/m 4,3 C 12,4 C 22,5 km/h (4 Bft) 100 %
29.04.2016 13:10 12,6 C 12,5 C 12,6 C 55 % 1017,8 hPa 0,0 l/m 2,9 km/h (1 Bft) S-SW 209 10 min 0,000 mm 436 W/m 3,8 C 12,6 C 17,7 km/h (3 Bft) 100 %
29.04.2016 13:20 12,8 C 12,6 C 12,8 C 54 % 1017,6 hPa 0,0 l/m 4,1 km/h (1 Bft) SW 234 10 min 0,000 mm 1148 W/m 3,7 C 12,8 C 17,7 km/h (3 Bft) 100 %
29.04.2016 13:30 12,6 C 12,6 C 12,9 C 52 % 1017,7 hPa 0,0 l/m 10,4 km/h (2 Bft) SW 226 10 min 0,000 mm 253 W/m 3,0 C 10,3 C 19,3 km/h (3 Bft) 100 %
29.04.2016 13:40 12,2 C 12,2 C 12,6 C 54 % 1017,7 hPa 0,0 l/m 8,9 km/h (2 Bft) S-SW 213 10 min 0,000 mm 415 W/m 3,2 C 10,6 C 22,5 km/h (4 Bft) 99 %
29.04.2016 13:50 12,3 C 12,2 C 12,3 C 54 % 1017,7 hPa 0,0 l/m 8,4 km/h (2 Bft) S 188 10 min 0,000 mm 394 W/m 3,3 C 11,0 C 22,5 km/h (4 Bft) 98 %
29.04.2016 14:00 12,1 C 12,0 C 12,3 C 54 % 1017,7 hPa 0,0 l/m 7,2 km/h (2 Bft) S-SW 207 10 min 0,279 mm 443 W/m 3,1 C 11,6 C 24,1 km/h (4 Bft) 97 %
29.04.2016 14:10 12,4 C 12,1 C 12,4 C 56 % 1017,7 hPa 0,0 l/m 4,8 km/h (1 Bft) S-SW 201 10 min 0,000 mm 963 W/m 3,9 C 12,4 C 17,7 km/h (3 Bft) 98 %
29.04.2016 14:20 12,6 C 12,4 C 12,7 C 56 % 1017,6 hPa 0,0 l/m 5,6 km/h (1 Bft) S 186 10 min 0,000 mm 946 W/m 4,1 C 12,6 C 22,5 km/h (4 Bft) 97 %
29.04.2016 14:30 12,4 C 12,4 C 12,7 C 54 % 1017,6 hPa 0,0 l/m 8,2 km/h (2 Bft) SW 231 10 min 0,000 mm 714 W/m 3,4 C 11,3 C 24,1 km/h (4 Bft) 97 %
29.04.2016 14:40 12,9 C 12,4 C 12,9 C 52 % 1017,4 hPa 0,0 l/m 3,7 km/h (1 Bft) W-NW 291 10 min 0,000 mm 793 W/m 3,3 C 12,9 C 17,7 km/h (3 Bft) 97 %
29.04.2016 14:50 12,4 C 12,4 C 13,0 C 52 % 1017,6 hPa 0,0 l/m 6,3 km/h (2 Bft) S-SO 148 10 min 0,000 mm 276 W/m 2,8 C 12,4 C 22,5 km/h (4 Bft) 97 %
29.04.2016 15:00 13,2 C 12,4 C 13,2 C 53 % 1017,5 hPa 0,0 l/m 8,1 km/h (2 Bft) S-SO 157 10 min 0,356 mm 823 W/m 3,8 C 12,2 C 24,1 km/h (4 Bft) 98 %
29.04.2016 15:10 13,3 C 13,2 C 13,5 C 51 % 1017,5 hPa 0,0 l/m 7,6 km/h (2 Bft) S-SW 198 10 min 0,000 mm 657 W/m 3,4 C 12,6 C 20,9 km/h (4 Bft) 97 %
29.04.2016 15:20 13,1 C 13,1 C 13,3 C 51 % 1017,4 hPa 0,0 l/m 2,3 km/h (1 Bft) S-SW 194 10 min 0,000 mm 171 W/m 3,2 C 13,1 C 14,5 km/h (3 Bft) 98 %
29.04.2016 15:30 13,1 C 13,1 C 13,3 C 54 % 1017,5 hPa 0,0 l/m 6,1 km/h (2 Bft) S 186 10 min 0,000 mm 200 W/m 4,0 C 13,1 C 17,7 km/h (3 Bft) 97 %
29.04.2016 15:40 13,1 C 13,0 C 13,1 C 52 % 1017,5 hPa 0,0 l/m 4,9 km/h (1 Bft) S-SW 200 10 min 0,000 mm 178 W/m 3,5 C 13,1 C 19,3 km/h (3 Bft) 98 %
29.04.2016 15:50 13,3 C 13,1 C 13,3 C 54 % 1017,3 hPa 0,0 l/m 2,7 km/h (1 Bft) W 271 10 min 0,000 mm 160 W/m 4,2 C 13,3 C 20,9 km/h (4 Bft) 97 %
29.04.2016 16:00 13,6 C 13,3 C 13,6 C 52 % 1017,4 hPa 0,0 l/m 8,6 km/h (2 Bft) SW 236 0 min 0,178 mm 93 W/m 3,9 C 12,3 C 20,9 km/h (4 Bft) 99 %
29.04.2016 16:10 13,8 C 13,6 C 13,8 C 48 % 1017,3 hPa 0,0 l/m 2,2 km/h (1 Bft) S 186 0 min 0,000 mm 42 W/m 3,0 C 13,8 C 11,3 km/h (2 Bft) 100 %
29.04.2016 16:20 13,7 C 13,6 C 13,8 C 52 % 1017,3 hPa 0,0 l/m 2,5 km/h (1 Bft) W-SW 256 0 min 0,000 mm 76 W/m 4,0 C 13,7 C 12,9 km/h (3 Bft) 100 %
29.04.2016 16:30 13,7 C 13,7 C 13,9 C 47 % 1017,1 hPa 0,0 l/m 2,3 km/h (1 Bft) W 272 0 min 0,000 mm 51 W/m 2,6 C 13,7 C 12,9 km/h (3 Bft) 100 %
29.04.2016 16:40 13,6 C 13,5 C 13,7 C 52 % 1017,1 hPa 0,0 l/m 2,8 km/h (1 Bft) S-SW 192 0 min 0,000 mm 53 W/m 3,9 C 13,6 C 16,1 km/h (3 Bft) 100 %
29.04.2016 16:50 13,6 C 13,6 C 13,7 C 51 % 1016,9 hPa 0,0 l/m 3,6 km/h (1 Bft) W-SW 239 0 min 0,000 mm 58 W/m 3,7 C 13,6 C 17,7 km/h (3 Bft) 100 %
29.04.2016 17:00 13,7 C 13,6 C 13,7 C 50 % 1017,0 hPa 0,0 l/m 1,9 km/h (1 Bft) SO 146 0 min 0,101 mm 40 W/m 3,5 C 13,7 C 16,1 km/h (3 Bft) 99 %
29.04.2016 17:10 13,5 C 13,5 C 13,7 C 51 % 1016,9 hPa 0,0 l/m 1,3 km/h (1 Bft) S-SO 161 0 min 0,000 mm 28 W/m 3,6 C 13,5 C 8,0 km/h (2 Bft) 97 %
29.04.2016 17:20 13,7 C 13,5 C 13,7 C 50 % 1016,7 hPa 0,0 l/m 2,6 km/h (1 Bft) W 261 0 min 0,000 mm 25 W/m 3,5 C 13,7 C 11,3 km/h (2 Bft) 98 %
29.04.2016 17:30 13,7 C 13,7 C 13,8 C 53 % 1016,6 hPa 0,0 l/m 0,9 km/h (0 Bft) S-SW 193 0 min 0,000 mm 14 W/m 4,3 C 13,7 C 9,7 km/h (2 Bft) 97 %
29.04.2016 17:40 13,5 C 13,5 C 13,7 C 49 % 1016,6 hPa 0,0 l/m 4,0 km/h (1 Bft) W-SW 242 0 min 0,000 mm 23 W/m 3,0 C 13,5 C 14,5 km/h (3 Bft) 98 %
29.04.2016 17:50 13,7 C 13,5 C 13,7 C 50 % 1016,4 hPa 0,0 l/m 1,7 km/h (1 Bft) W-SW 240 0 min 0,000 mm 16 W/m 3,5 C 13,7 C 11,3 km/h (2 Bft) 97 %
29.04.2016 18:00 13,8 C 13,7 C 13,8 C 49 % 1016,5 hPa 0,0 l/m 3,2 km/h (1 Bft) W 260 0 min 0,026 mm 9 W/m 3,3 C 13,8 C 11,3 km/h (2 Bft) 97 %
29.04.2016 18:10 13,7 C 13,7 C 13,8 C 47 % 1016,4 hPa 0,0 l/m 1,3 km/h (1 Bft) S-SW 206 0 min 0,000 mm 12 W/m 2,6 C 13,7 C 11,3 km/h (2 Bft) 98 %
29.04.2016 18:20 13,5 C 13,5 C 13,7 C 50 % 1016,4 hPa 0,0 l/m 2,1 km/h (1 Bft) SW 236 0 min 0,000 mm 12 W/m 3,3 C 13,5 C 14,5 km/h (3 Bft) 97 %
29.04.2016 18:30 13,4 C 13,4 C 13,5 C 49 % 1016,3 hPa 0,0 l/m 1,8 km/h (1 Bft) NW 304 0 min 0,000 mm 11 W/m 2,9 C 13,4 C 9,7 km/h (2 Bft) 98 %
29.04.2016 18:40 13,4 C 13,4 C 13,4 C 50 % 1016,3 hPa 0,0 l/m 0,9 km/h (0 Bft) W-SW 244 0 min 0,000 mm 9 W/m 3,2 C 13,4 C 9,7 km/h (2 Bft) 97 %
29.04.2016 18:50 13,1 C 13,1 C 13,4 C 49 % 1016,3 hPa 0,0 l/m 1,5 km/h (1 Bft) W-NW 300 0 min 0,000 mm 21 W/m 2,6 C 13,1 C 8,0 km/h (2 Bft) 98 %
29.04.2016 19:00 13,1 C 13,1 C 13,2 C 50 % 1016,3 hPa 0,0 l/m 2,6 km/h (1 Bft) W 259 0 min 0,025 mm 14 W/m 2,9 C 13,1 C 12,9 km/h (3 Bft) 97 %
29.04.2016 19:10 12,9 C 12,9 C 13,1 C 50 % 1016,3 hPa 0,0 l/m 1,2 km/h (1 Bft) W-NW 291 0 min 0,000 mm 16 W/m 2,7 C 12,9 C 8,0 km/h (2 Bft) 97 %
29.04.2016 19:20 12,8 C 12,8 C 12,9 C 50 % 1016,3 hPa 0,0 l/m 1,2 km/h (1 Bft) W-NW 292 0 min 0,000 mm 19 W/m 2,6 C 12,8 C 6,4 km/h (2 Bft) 98 %
29.04.2016 19:30 12,7 C 12,7 C 12,8 C 51 % 1016,3 hPa 0,0 l/m 0,5 km/h (0 Bft) W-NW 294 0 min 0,000 mm 42 W/m 2,8 C 12,7 C 4,8 km/h (1 Bft) 97 %
29.04.2016 19:40 12,5 C 12,5 C 12,7 C 52 % 1016,4 hPa 0,0 l/m 1,4 km/h (1 Bft) NW 314 0 min 0,000 mm 33 W/m 2,9 C 12,5 C 8,0 km/h (2 Bft) 97 %
29.04.2016 19:50 12,3 C 12,3 C 12,5 C 54 % 1016,4 hPa 0,0 l/m 0,3 km/h (0 Bft) NW 315 0 min 0,000 mm 30 W/m 3,3 C 12,3 C 4,8 km/h (1 Bft) 97 %
29.04.2016 20:00 11,9 C 11,9 C 12,3 C 56 % 1016,3 hPa 0,0 l/m 0,0 km/h (0 Bft) NW 315 0 min 0,026 mm 30 W/m 3,4 C 11,9 C 1,6 km/h (1 Bft) 98 %
29.04.2016 20:10 11,6 C 11,6 C 11,9 C 58 % 1016,4 hPa 0,0 l/m 0,0 km/h (0 Bft) NW 315 0 min 0,000 mm 21 W/m 3,6 C 11,6 C 1,6 km/h (1 Bft) 97 %
29.04.2016 20:20 11,1 C 11,1 C 11,6 C 61 % 1016,4 hPa 0,0 l/m 0,0 km/h (0 Bft) NW 315 0 min 0,000 mm 12 W/m 3,9 C 11,1 C 0,0 km/h (0 Bft) 97 %
29.04.2016 20:30 10,6 C 10,6 C 11,1 C 60 % 1016,5 hPa 0,0 l/m 0,0 km/h (0 Bft) NW 315 0 min 0,000 mm 9 W/m 3,2 C 10,6 C 0,0 km/h (0 Bft) 98 %
29.04.2016 20:40 10,3 C 10,3 C 10,6 C 61 % 1016,6 hPa 0,0 l/m 0,0 km/h (0 Bft) NW 315 0 min 0,000 mm 0 W/m 3,1 C 10,3 C 0,0 km/h (0 Bft) 97 %
29.04.2016 20:50 9,9 C 9,9 C 10,3 C 63 % 1016,6 hPa 0,0 l/m 0,0 km/h (0 Bft) NW 315 0 min 0,000 mm 0 W/m 3,2 C 9,9 C 1,6 km/h (1 Bft) 98 %
29.04.2016 21:00 9,6 C 9,6 C 9,9 C 66 % 1016,6 hPa 0,0 l/m 0,0 km/h (0 Bft) NW 325 0 min 0,000 mm 0 W/m 3,6 C 9,6 C 1,6 km/h (1 Bft) 97 %
29.04.2016 21:10 9,1 C 9,1 C 9,6 C 67 % 1016,6 hPa 0,0 l/m 0,0 km/h (0 Bft) N-NW 337 0 min 0,000 mm 0 W/m 3,3 C 9,1 C 3,2 km/h (1 Bft) 100 %
29.04.2016 21:20 8,8 C 8,8 C 9,1 C 65 % 1016,7 hPa 0,0 l/m 0,0 km/h (0 Bft) N-NW 337 0 min 0,000 mm 0 W/m 2,6 C 8,8 C 1,6 km/h (1 Bft) 100 %
29.04.2016 21:30 8,7 C 8,7 C 8,8 C 64 % 1016,7 hPa 0,0 l/m 0,0 km/h (0 Bft) N 0 0 min 0,000 mm 0 W/m 2,3 C 8,7 C 0,0 km/h (0 Bft) 100 %
29.04.2016 21:40 8,6 C 8,6 C 8,7 C 66 % 1016,7 hPa 0,0 l/m 0,0 km/h (0 Bft) N 0 0 min 0,000 mm 0 W/m 2,6 C 8,6 C 0,0 km/h (0 Bft) 100 %
29.04.2016 21:50 8,3 C 8,3 C 8,6 C 66 % 1016,8 hPa 0,0 l/m 0,0 km/h (0 Bft) N 0 0 min 0,000 mm 0 W/m 2,3 C 8,3 C 0,0 km/h (0 Bft) 100 %
29.04.2016 22:00 8,1 C 8,1 C 8,3 C 70 % 1016,9 hPa 0,0 l/m 0,0 km/h (0 Bft) N 0 0 min 0,025 mm 0 W/m 3,0 C 8,1 C 0,0 km/h (0 Bft) 100 %
29.04.2016 22:10 7,8 C 7,8 C 8,1 C 71 % 1016,9 hPa 0,0 l/m 0,0 km/h (0 Bft) N 0 0 min 0,000 mm 0 W/m 2,9 C 7,8 C 0,0 km/h (0 Bft) 100 %
29.04.2016 22:20 7,4 C 7,4 C 7,7 C 73 % 1016,8 hPa 0,0 l/m 0,0 km/h (0 Bft) N 0 0 min 0,000 mm 0 W/m 2,9 C 7,4 C 0,0 km/h (0 Bft) 100 %
29.04.2016 22:30 7,0 C 7,0 C 7,4 C 75 % 1016,8 hPa 0,0 l/m 0,0 km/h (0 Bft) N 0 0 min 0,000 mm 0 W/m 2,9 C 7,0 C 0,0 km/h (0 Bft) 100 %
29.04.2016 22:40 6,6 C 6,6 C 7,0 C 76 % 1016,7 hPa 0,0 l/m 0,0 km/h (0 Bft) N 0 0 min 0,000 mm 0 W/m 2,7 C 6,6 C 0,0 km/h (0 Bft) 100 %
29.04.2016 22:50 6,2 C 6,2 C 6,5 C 77 % 1016,6 hPa 0,0 l/m 0,0 km/h (0 Bft) N 0 0 min 0,000 mm 0 W/m 2,5 C 6,2 C 0,0 km/h (0 Bft) 100 %
29.04.2016 23:00 5,8 C 5,8 C 6,2 C 79 % 1016,7 hPa 0,0 l/m 0,0 km/h (0 Bft) N 0 0 min 0,025 mm 0 W/m 2,4 C 5,8 C 0,0 km/h (0 Bft) 100 %
29.04.2016 23:10 5,6 C 5,6 C 5,8 C 80 % 1016,6 hPa 0,0 l/m 0,0 km/h (0 Bft) N 0 0 min 0,000 mm 0 W/m 2,4 C 5,6 C 0,0 km/h (0 Bft) 100 %
29.04.2016 23:20 5,4 C 5,4 C 5,6 C 81 % 1016,6 hPa 0,0 l/m 0,0 km/h (0 Bft) N 0 0 min 0,000 mm 0 W/m 2,4 C 5,4 C 0,0 km/h (0 Bft) 100 %
29.04.2016 23:30 5,2 C 5,2 C 5,4 C 82 % 1016,6 hPa 0,0 l/m 0,0 km/h (0 Bft) N 0 0 min 0,000 mm 0 W/m 2,4 C 5,2 C 0,0 km/h (0 Bft) 99 %
29.04.2016 23:40 4,8 C 4,8 C 5,2 C 83 % 1016,7 hPa 0,0 l/m 0,0 km/h (0 Bft) N-NW 337 0 min 0,000 mm 0 W/m 2,2 C 4,8 C 1,6 km/h (1 Bft) 100 %
29.04.2016 23:50 4,5 C 4,5 C 4,8 C 84 % 1016,7 hPa 0,0 l/m 0,0 km/h (0 Bft) N 0 0 min 0,000 mm 0 W/m 2,0 C 4,5 C 0,0 km/h (0 Bft) 100 %
_ Min-Zeit 06:00 06:00 06:00 16:30 18:30 - 00:00 - - - - - 06:00 06:00 00:00 08:00
Minimum _ -2,2 C -2,2 C -2,1 C 47 % 1016,3 hPa - 0,0 km/h (0 Bft) - - - - - -3,5 C -2,2 C 0,0 km/h (0 Bft) 89 %
_ Max-Zeit 16:30 16:30 16:30 03:20 09:30 00:00 13:30 - - 11:25 12:10 13:20 10:50 16:10 12:00 00:00
Maximum _ 13,9 C 13,7 C 13,9 C 91 % 1018,7 hPa 0,0 l/m 10,4 km/h
SW (2 Bft)
- - 25 min 0,356 mm 1148 W/m 5,2 C 13,8 C 24,1 km/h
S-SW (4 Bft)
100 %
Durchschnitt _ 6,5 C 6,3 C 6,6 C 72 % 1017,4 hPa #0,0 l/m 1,7 km/h (1 Bft) S-SW - #7:40 h #2,311 mm 317 W/m 1,2 C 6,4 C 6,8 km/h (2 Bft) 99 %
PRIVATE WETTERSTATION BILLIGHEIM-ALLFELD - www.neckar-odenwald-wetter.de - Holger Sonntag